createdAt,value
2022-12-15T00:00:48.868Z,-5.60
2022-12-15T00:03:31.715Z,-5.60
2022-12-15T00:06:15.763Z,-5.60
2022-12-15T00:09:00.689Z,-5.60
2022-12-15T00:11:42.980Z,-5.60
2022-12-15T00:14:26.625Z,-5.50
2022-12-15T00:17:08.948Z,-5.40
2022-12-15T00:19:51.233Z,-5.50
2022-12-15T00:22:33.656Z,-5.30
2022-12-15T00:25:18.729Z,-5.30
2022-12-15T00:28:01.035Z,-5.30
2022-12-15T00:30:43.331Z,-5.20
2022-12-15T00:33:26.535Z,-5.10
2022-12-15T00:36:08.838Z,-5.10
2022-12-15T00:38:47.930Z,-5.10
2022-12-15T00:41:21.036Z,-5.10
2022-12-15T00:43:51.019Z,-5.10
2022-12-15T00:46:33.411Z,-5.10
2022-12-15T00:49:03.874Z,-5.10
2022-12-15T00:51:46.179Z,-5.10
2022-12-15T00:54:28.480Z,-5.10
2022-12-15T00:57:13.360Z,-5.10
2022-12-15T00:59:55.673Z,-5.00
2022-12-15T01:02:38.108Z,-4.90
2022-12-15T01:05:21.580Z,-4.80
2022-12-15T01:08:03.860Z,-4.80
2022-12-15T01:10:46.152Z,-4.80
2022-12-15T01:13:31.464Z,-4.70
2022-12-15T01:16:14.057Z,-4.70
2022-12-15T01:18:56.379Z,-4.70
2022-12-15T01:21:26.303Z,-4.70
2022-12-15T01:23:56.562Z,-4.70
2022-12-15T01:26:26.559Z,-4.70
2022-12-15T01:28:58.999Z,-4.60
2022-12-15T01:31:28.995Z,-4.60
2022-12-15T01:33:58.903Z,-4.60
2022-12-15T01:36:28.748Z,-4.50
2022-12-15T01:38:58.652Z,-4.50
2022-12-15T01:41:25.908Z,-4.40
2022-12-15T01:43:58.524Z,-4.50
2022-12-15T01:46:28.603Z,-4.50
2022-12-15T01:49:02.765Z,-4.60
2022-12-15T01:51:35.825Z,-4.50
2022-12-15T01:54:09.005Z,-4.50
2022-12-15T01:56:41.058Z,-4.50
2022-12-15T01:59:17.955Z,-4.50
2022-12-15T02:01:50.006Z,-4.50
2022-12-15T02:04:21.543Z,-4.40
2022-12-15T02:06:53.118Z,-4.40
2022-12-15T02:09:24.111Z,-4.40
2022-12-15T02:12:03.719Z,-4.40
2022-12-15T02:14:48.782Z,-4.50
2022-12-15T02:17:26.429Z,-4.50
2022-12-15T02:20:41.963Z,-4.50
2022-12-15T02:23:37.429Z,-4.50
2022-12-15T02:26:48.916Z,-4.60
2022-12-15T02:29:43.835Z,-4.60
2022-12-15T02:32:18.129Z,-4.50
2022-12-15T02:34:50.745Z,-4.50
2022-12-15T02:37:22.721Z,-4.50
2022-12-15T02:39:52.747Z,-4.40
2022-12-15T02:42:22.884Z,-4.50
2022-12-15T02:44:55.709Z,-4.60
2022-12-15T02:47:34.555Z,-4.60
2022-12-15T02:50:46.180Z,-4.60
2022-12-15T02:53:29.045Z,-4.50
2022-12-15T02:56:03.971Z,-4.60
2022-12-15T02:58:40.652Z,-4.70
2022-12-15T03:01:14.636Z,-4.70
2022-12-15T03:03:47.312Z,-4.70
2022-12-15T03:06:17.545Z,-4.70
2022-12-15T03:08:47.502Z,-4.70
2022-12-15T03:11:17.378Z,-4.60
2022-12-15T03:13:47.333Z,-4.60
2022-12-15T03:16:20.476Z,-4.60
2022-12-15T03:18:53.065Z,-4.60
2022-12-15T03:21:22.990Z,-4.50
2022-12-15T03:23:52.921Z,-4.40
2022-12-15T03:26:22.795Z,-4.50
2022-12-15T03:28:52.938Z,-4.50
2022-12-15T03:31:23.575Z,-4.50
2022-12-15T03:33:56.188Z,-4.50
2022-12-15T03:36:26.182Z,-4.40
2022-12-15T03:38:56.029Z,-4.40
2022-12-15T03:41:25.869Z,-4.50
2022-12-15T03:43:55.694Z,-4.50
2022-12-15T03:46:25.586Z,-4.60
2022-12-15T03:48:58.700Z,-4.60
2022-12-15T03:51:28.875Z,-4.60
2022-12-15T03:53:59.150Z,-4.50
2022-12-15T03:56:29.129Z,-4.60
2022-12-15T03:58:59.098Z,-4.60
2022-12-15T04:01:31.716Z,-4.60
2022-12-15T04:04:05.193Z,-4.70
2022-12-15T04:06:35.212Z,-4.70
2022-12-15T04:09:05.220Z,-4.70
2022-12-15T04:11:35.094Z,-4.70
2022-12-15T04:14:05.037Z,-4.70
2022-12-15T04:16:35.001Z,-4.60
2022-12-15T04:19:20.414Z,-4.60
2022-12-15T04:21:50.457Z,-4.60
2022-12-15T04:24:32.785Z,-4.60
2022-12-15T04:27:15.057Z,-4.70
2022-12-15T04:29:57.414Z,-4.70
2022-12-15T04:32:39.780Z,-4.80
2022-12-15T04:35:25.126Z,-4.80
2022-12-15T04:38:07.420Z,-4.70
2022-12-15T04:40:49.700Z,-4.80
2022-12-15T04:43:32.337Z,-4.70
2022-12-15T04:46:15.019Z,-4.60
2022-12-15T04:48:57.323Z,-4.70
2022-12-15T04:51:42.225Z,-4.80
2022-12-15T04:54:24.544Z,-4.90
2022-12-15T04:57:06.860Z,-4.90
2022-12-15T04:59:49.173Z,-4.80
2022-12-15T05:02:31.551Z,-4.70
2022-12-15T05:05:13.922Z,-4.70
2022-12-15T05:07:58.803Z,-4.60
2022-12-15T05:10:41.085Z,-4.60
2022-12-15T05:13:24.099Z,-4.60
2022-12-15T05:16:06.511Z,-4.70
2022-12-15T05:18:48.904Z,-4.60
2022-12-15T05:21:31.204Z,-4.60
2022-12-15T05:24:16.292Z,-4.60
2022-12-15T05:26:58.632Z,-4.60
2022-12-15T05:29:40.971Z,-4.60
2022-12-15T05:32:13.292Z,-4.50
2022-12-15T05:34:43.220Z,-4.50
2022-12-15T05:37:13.133Z,-4.50
2022-12-15T05:39:45.656Z,-4.40
2022-12-15T05:42:15.745Z,-4.40
2022-12-15T05:44:45.884Z,-4.40
2022-12-15T05:47:15.721Z,-4.40
2022-12-15T05:49:45.657Z,-4.40
2022-12-15T05:52:15.457Z,-4.30
2022-12-15T05:54:47.999Z,-4.20
2022-12-15T05:57:17.930Z,-4.10
2022-12-15T05:59:47.746Z,-4.00
2022-12-15T06:02:17.665Z,-3.90
2022-12-15T06:04:47.742Z,-3.90
2022-12-15T06:07:17.704Z,-3.90
2022-12-15T06:09:50.119Z,-3.90
2022-12-15T06:12:20.133Z,-4.00
2022-12-15T06:14:50.066Z,-3.90
2022-12-15T06:17:20.027Z,-3.90
2022-12-15T06:19:50.068Z,-3.90
2022-12-15T06:22:19.932Z,-4.00
2022-12-15T06:24:52.384Z,-4.00
2022-12-15T06:27:22.525Z,-4.10
2022-12-15T06:29:52.544Z,-4.00
2022-12-15T06:32:22.505Z,-4.00
2022-12-15T06:34:52.492Z,-4.00
2022-12-15T06:37:22.379Z,-4.10
2022-12-15T06:39:54.940Z,-4.10
2022-12-15T06:42:24.859Z,-4.20
2022-12-15T06:44:54.793Z,-4.10
2022-12-15T06:47:24.724Z,-4.10
2022-12-15T06:49:55.505Z,-4.10
2022-12-15T06:52:25.350Z,-4.20
2022-12-15T06:54:57.937Z,-4.20
2022-12-15T06:57:27.784Z,-4.20
2022-12-15T06:59:57.641Z,-4.30
2022-12-15T07:02:30.186Z,-4.40
2022-12-15T07:05:00.288Z,-4.30
2022-12-15T07:07:30.476Z,-4.30
2022-12-15T07:10:02.976Z,-4.40
2022-12-15T07:12:32.891Z,-4.40
2022-12-15T07:15:03.155Z,-4.40
2022-12-15T07:17:32.996Z,-4.40
2022-12-15T07:20:02.859Z,-4.60
2022-12-15T07:22:32.734Z,-4.70
2022-12-15T07:25:05.228Z,-4.80
2022-12-15T07:27:35.434Z,-5.10
2022-12-15T07:30:05.263Z,-5.30
2022-12-15T07:32:36.111Z,-5.20
2022-12-15T07:35:06.045Z,-5.60
2022-12-15T07:37:35.950Z,-5.70
2022-12-15T07:40:10.081Z,-5.90
2022-12-15T07:42:40.175Z,-5.70
2022-12-15T07:45:11.363Z,-5.60
2022-12-15T07:47:41.317Z,-5.50
2022-12-15T07:50:12.104Z,-5.50
2022-12-15T07:52:42.059Z,-5.50
2022-12-15T07:55:14.715Z,-5.50
2022-12-15T07:57:44.595Z,-5.60
2022-12-15T08:00:15.568Z,-5.40
2022-12-15T08:02:45.752Z,-5.30
2022-12-15T08:05:20.331Z,-5.30
2022-12-15T08:07:50.222Z,-5.40
2022-12-15T08:10:22.709Z,-5.60
2022-12-15T08:12:52.653Z,-5.60
2022-12-15T08:15:22.592Z,-5.50
2022-12-15T08:17:52.515Z,-5.70
2022-12-15T08:20:22.562Z,-5.60
2022-12-15T08:22:52.453Z,-5.60
2022-12-15T08:25:24.981Z,-5.60
2022-12-15T08:27:54.905Z,-5.80
2022-12-15T08:30:24.765Z,-5.90
2022-12-15T08:32:54.666Z,-6.10
2022-12-15T08:35:54.443Z,-6.00
2022-12-15T08:38:14.430Z,-5.90
2022-12-15T08:40:46.970Z,-5.90
2022-12-15T08:43:17.045Z,-5.90
2022-12-15T08:45:47.005Z,-5.70
2022-12-15T08:48:17.016Z,-5.50
2022-12-15T08:50:48.096Z,-5.20
2022-12-15T08:53:33.327Z,-4.70
2022-12-15T08:56:08.629Z,-4.40
2022-12-15T08:58:38.825Z,-4.00
2022-12-15T09:01:11.001Z,-3.80
2022-12-15T09:03:41.733Z,-3.50
2022-12-15T09:06:14.930Z,-3.20
2022-12-15T09:08:45.347Z,-3.20
2022-12-15T09:11:23.028Z,-3.00
2022-12-15T09:13:53.006Z,-2.80
2022-12-15T09:16:24.058Z,-2.50
2022-12-15T09:18:55.626Z,-2.40
2022-12-15T09:21:26.866Z,-2.60
2022-12-15T09:24:00.613Z,-2.60
2022-12-15T09:26:34.661Z,-2.50
2022-12-15T09:29:04.729Z,-2.50
2022-12-15T09:31:39.213Z,-2.30
2022-12-15T09:34:09.107Z,-2.20
2022-12-15T09:36:42.436Z,-2.20
2022-12-15T09:39:12.993Z,-2.20
2022-12-15T09:41:51.952Z,-2.10
2022-12-15T09:44:23.557Z,-2.20
2022-12-15T09:47:01.502Z,-2.40
2022-12-15T09:49:45.607Z,-2.60
2022-12-15T09:52:17.756Z,-2.60
2022-12-15T09:54:48.243Z,-2.50
2022-12-15T09:57:28.485Z,-2.20
2022-12-15T10:00:11.105Z,-2.00
2022-12-15T10:03:19.891Z,-1.80
2022-12-15T10:06:27.089Z,-1.80
2022-12-15T10:08:59.533Z,-2.10
2022-12-15T10:11:50.972Z,-2.30
2022-12-15T10:14:31.413Z,-2.20
2022-12-15T10:17:21.526Z,-2.20
2022-12-15T10:19:56.407Z,-2.10
2022-12-15T10:22:28.889Z,-2.30
2022-12-15T10:25:14.243Z,-2.50
2022-12-15T10:28:02.335Z,-2.60
2022-12-15T10:30:35.390Z,-2.70
2022-12-15T10:33:06.751Z,-2.70
2022-12-15T10:35:39.805Z,-2.60
2022-12-15T10:38:16.844Z,-2.60
2022-12-15T10:40:50.282Z,-2.80
2022-12-15T10:43:29.310Z,-2.90
2022-12-15T10:46:14.147Z,-3.00
2022-12-15T10:48:48.681Z,-3.10
2022-12-15T10:51:37.176Z,-3.00
2022-12-15T10:54:09.854Z,-3.00
2022-12-15T10:56:50.596Z,-3.10
2022-12-15T10:59:28.365Z,-3.10
2022-12-15T11:02:24.357Z,-3.10
2022-12-15T11:04:58.497Z,-3.00
2022-12-15T11:07:29.610Z,-3.00
2022-12-15T11:10:02.747Z,-2.90
2022-12-15T11:12:46.887Z,-2.80
2022-12-15T11:15:56.686Z,-2.70
2022-12-15T11:18:43.552Z,-2.50
2022-12-15T11:21:21.721Z,-2.50
2022-12-15T11:24:01.265Z,-2.50
2022-12-15T11:26:34.212Z,-2.60
2022-12-15T11:29:08.967Z,-2.50
2022-12-15T11:31:41.898Z,-2.50
2022-12-15T11:34:18.573Z,-2.60
2022-12-15T11:36:59.111Z,-2.50
2022-12-15T11:39:39.011Z,-2.60
2022-12-15T11:42:16.595Z,-2.50
2022-12-15T11:44:53.340Z,-2.50
2022-12-15T11:47:29.185Z,-2.50
2022-12-15T11:50:22.745Z,-2.40
2022-12-15T11:53:26.829Z,-2.40
2022-12-15T11:56:02.889Z,-2.60
2022-12-15T11:59:05.006Z,-2.60
2022-12-15T12:01:55.456Z,-2.70
2022-12-15T12:04:29.371Z,-2.80
2022-12-15T12:07:09.821Z,-2.90
2022-12-15T12:09:40.843Z,-2.90
2022-12-15T12:12:19.677Z,-2.70
2022-12-15T12:14:56.156Z,-3.10
2022-12-15T12:17:33.944Z,-3.20
2022-12-15T12:20:11.358Z,-3.30
2022-12-15T12:22:48.357Z,-3.30
2022-12-15T12:25:22.347Z,-3.20
2022-12-15T12:27:56.202Z,-3.20
2022-12-15T12:30:28.374Z,-3.30
2022-12-15T12:33:05.997Z,-3.40
2022-12-15T12:35:40.877Z,-3.60
2022-12-15T12:38:14.775Z,-3.60
2022-12-15T12:40:52.008Z,-3.60
2022-12-15T12:43:31.455Z,-3.70
2022-12-15T12:46:05.014Z,-3.80
2022-12-15T12:48:37.780Z,-3.80
2022-12-15T12:51:19.406Z,-3.90
2022-12-15T12:53:52.680Z,-4.00
2022-12-15T12:56:34.170Z,-4.10
2022-12-15T12:59:08.829Z,-4.10
2022-12-15T13:01:40.223Z,-4.10
2022-12-15T13:04:14.928Z,-4.10
2022-12-15T13:07:05.883Z,-4.10
2022-12-15T13:09:47.670Z,-4.20
2022-12-15T13:12:53.267Z,-4.40
2022-12-15T13:15:37.405Z,-4.50
2022-12-15T13:18:14.549Z,-4.50
2022-12-15T13:20:45.422Z,-4.50
2022-12-15T13:23:38.054Z,-4.70
2022-12-15T13:26:21.700Z,-4.80
2022-12-15T13:28:53.849Z,-4.80
2022-12-15T13:31:36.419Z,-4.90
2022-12-15T13:34:18.877Z,-5.10
2022-12-15T13:36:56.870Z,-5.10
2022-12-15T13:39:38.725Z,-5.20
2022-12-15T13:45:36.826Z,-5.60
2022-12-15T13:48:18.404Z,-5.70
2022-12-15T13:50:52.350Z,-5.80
2022-12-15T13:53:25.744Z,-5.90
2022-12-15T13:56:02.349Z,-6.20
2022-12-15T13:58:41.159Z,-6.70
2022-12-15T14:01:27.261Z,-7.30
2022-12-15T14:04:08.085Z,-7.20
2022-12-15T14:06:40.474Z,-7.20
2022-12-15T14:09:16.151Z,-7.10
2022-12-15T14:11:53.098Z,-7.10
2022-12-15T14:14:28.365Z,-7.20
2022-12-15T14:17:01.350Z,-7.40
2022-12-15T14:19:40.706Z,-7.40
2022-12-15T14:22:27.067Z,-7.70
2022-12-15T14:25:03.268Z,-7.90
2022-12-15T14:27:34.708Z,-7.90
2022-12-15T14:30:33.075Z,-8.00
2022-12-15T14:33:05.617Z,-8.00
2022-12-15T14:35:38.775Z,-8.10
2022-12-15T14:38:10.992Z,-8.10
2022-12-15T14:40:41.590Z,-8.10
2022-12-15T14:43:14.905Z,-8.20
2022-12-15T14:45:47.558Z,-8.20
2022-12-15T14:48:40.983Z,-8.30
2022-12-15T14:51:16.305Z,-8.40
2022-12-15T14:53:47.056Z,-8.60
2022-12-15T14:56:30.785Z,-8.70
2022-12-15T14:59:04.433Z,-8.80
2022-12-15T15:01:42.813Z,-8.90
2022-12-15T15:03:07.531Z,-5.40
2022-12-15T15:04:29.391Z,-9.10
2022-12-15T15:07:00.916Z,-9.10
2022-12-15T15:09:32.630Z,-9.10
2022-12-15T15:12:05.750Z,-9.00
2022-12-15T15:14:36.865Z,-9.10
2022-12-15T15:17:17.104Z,-8.90
2022-12-15T15:19:50.463Z,-9.00
2022-12-15T15:22:39.818Z,-9.00
2022-12-15T15:25:40.015Z,-9.00
2022-12-15T15:28:23.326Z,-8.90
2022-12-15T15:30:56.528Z,-8.80
2022-12-15T15:33:30.648Z,-8.80
2022-12-15T15:36:02.484Z,-8.60
2022-12-15T15:38:35.782Z,-8.60
2022-12-15T15:41:18.059Z,-8.50
2022-12-15T15:43:48.327Z,-8.30
2022-12-15T15:46:21.169Z,-8.30
2022-12-15T15:48:54.886Z,-8.30
2022-12-15T15:51:25.372Z,-8.30
2022-12-15T15:53:56.195Z,-8.20
2022-12-15T15:56:27.548Z,-8.20
2022-12-15T15:58:57.527Z,-8.30
2022-12-15T16:01:27.565Z,-8.40
2022-12-15T16:04:00.141Z,-8.40
2022-12-15T16:06:30.524Z,-8.50
2022-12-15T16:09:00.468Z,-8.70
2022-12-15T16:11:33.020Z,-8.70
2022-12-15T16:14:03.742Z,-8.60
2022-12-15T16:16:35.390Z,-8.50
2022-12-15T16:19:07.979Z,-8.50
2022-12-15T16:21:38.517Z,-8.40
2022-12-15T16:24:11.805Z,-8.30
2022-12-15T16:26:41.984Z,-8.40
2022-12-15T16:29:17.618Z,-8.40
2022-12-15T16:31:48.082Z,-8.50
2022-12-15T16:34:21.858Z,-8.50
2022-12-15T16:36:51.780Z,-8.40
2022-12-15T16:39:27.844Z,-8.40
2022-12-15T16:41:58.585Z,-8.30
2022-12-15T16:44:29.644Z,-8.30
2022-12-15T16:47:00.186Z,-8.30
2022-12-15T16:49:39.777Z,-8.30
2022-12-15T16:52:12.111Z,-8.30
2022-12-15T16:54:42.280Z,-8.30
2022-12-15T16:57:13.760Z,-8.30
2022-12-15T16:59:43.653Z,-8.40
2022-12-15T17:02:29.528Z,-8.60
2022-12-15T17:05:02.274Z,-8.70
2022-12-15T17:07:32.631Z,-8.70
2022-12-15T17:10:02.572Z,-8.80
2022-12-15T17:12:33.100Z,-8.90
2022-12-15T17:15:03.052Z,-9.00
2022-12-15T17:17:33.436Z,-9.10
2022-12-15T17:20:35.749Z,-9.30
2022-12-15T17:22:58.825Z,-9.20
2022-12-15T17:26:09.376Z,-9.10
2022-12-15T17:28:27.409Z,-9.10
2022-12-15T17:30:57.655Z,-9.20
2022-12-15T17:33:29.822Z,-9.10
2022-12-15T17:36:03.726Z,-9.10
2022-12-15T17:38:33.688Z,-9.10
2022-12-15T17:41:04.034Z,-9.30
2022-12-15T17:43:36.147Z,-9.30
2022-12-15T17:46:06.378Z,-9.30
2022-12-15T17:48:36.477Z,-9.40
2022-12-15T17:51:15.515Z,-9.40
2022-12-15T17:53:45.729Z,-9.40
2022-12-15T17:56:17.484Z,-9.60
2022-12-15T17:58:47.630Z,-9.50
2022-12-15T18:01:17.592Z,-9.40
2022-12-15T18:03:47.659Z,-9.30
2022-12-15T18:06:20.798Z,-9.20
2022-12-15T18:08:51.048Z,-9.20
2022-12-15T18:11:21.256Z,-9.20
2022-12-15T18:13:51.358Z,-9.20
2022-12-15T18:16:21.275Z,-9.30
2022-12-15T18:18:51.323Z,-9.30
2022-12-15T18:21:25.066Z,-9.40
2022-12-15T18:23:55.046Z,-9.50
2022-12-15T18:26:24.904Z,-9.60
2022-12-15T18:28:54.877Z,-9.60
2022-12-15T18:31:27.896Z,-9.50
2022-12-15T18:34:04.346Z,-9.50
2022-12-15T18:36:37.207Z,-9.50
2022-12-15T18:39:18.735Z,-9.60
2022-12-15T18:41:49.185Z,-9.70
2022-12-15T18:44:23.866Z,-9.90
2022-12-15T18:46:55.008Z,-9.90
2022-12-15T18:49:25.334Z,-9.80
2022-12-15T18:51:57.925Z,-9.70
2022-12-15T18:54:28.919Z,-9.50
2022-12-15T18:56:58.855Z,-9.30
2022-12-15T18:59:28.820Z,-9.30
2022-12-15T19:01:58.812Z,-9.10
2022-12-15T19:04:28.820Z,-9.00
2022-12-15T19:07:06.671Z,-8.90
2022-12-15T19:09:36.988Z,-8.90
2022-12-15T19:12:22.061Z,-8.90
2022-12-15T19:14:55.120Z,-8.70
2022-12-15T19:17:39.167Z,-8.70
2022-12-15T19:20:27.883Z,-8.70
2022-12-15T19:23:00.324Z,-8.70
2022-12-15T19:25:31.950Z,-8.70
2022-12-15T19:28:03.376Z,-8.70
2022-12-15T19:30:40.242Z,-8.70
2022-12-15T19:33:12.230Z,-8.80
2022-12-15T19:35:43.555Z,-8.80
2022-12-15T19:38:22.438Z,-9.00
2022-12-15T19:40:53.491Z,-8.80
2022-12-15T19:43:24.185Z,-8.80
2022-12-15T19:45:54.865Z,-8.70
2022-12-15T19:48:24.818Z,-8.70
2022-12-15T19:50:55.111Z,-8.70
2022-12-15T19:53:30.122Z,-8.60
2022-12-15T19:56:02.689Z,-8.60
2022-12-15T19:58:34.125Z,-8.50
2022-12-15T20:01:07.416Z,-8.60
2022-12-15T20:03:39.088Z,-8.60
2022-12-15T20:06:16.089Z,-8.60
2022-12-15T20:08:50.492Z,-8.70
2022-12-15T20:11:22.799Z,-8.80
2022-12-15T20:13:53.454Z,-8.60
2022-12-15T20:16:24.239Z,-8.60
2022-12-15T20:18:56.127Z,-8.60
2022-12-15T20:21:31.353Z,-8.60
2022-12-15T20:24:07.805Z,-8.50
2022-12-15T20:26:39.378Z,-8.50
2022-12-15T20:29:13.481Z,-8.50
2022-12-15T20:31:43.469Z,-8.60
2022-12-15T20:34:13.450Z,-8.80
2022-12-15T20:36:43.326Z,-8.80
2022-12-15T20:39:22.661Z,-9.00
2022-12-15T20:41:52.621Z,-9.00
2022-12-15T20:44:23.061Z,-9.00
2022-12-15T20:46:53.332Z,-9.30
2022-12-15T20:49:24.931Z,-9.30
2022-12-15T20:51:55.289Z,-9.20
2022-12-15T20:54:27.754Z,-9.20
2022-12-15T20:56:57.749Z,-9.10
2022-12-15T20:59:27.628Z,-9.10
2022-12-15T21:01:57.678Z,-9.10
2022-12-15T21:04:30.484Z,-9.30
2022-12-15T21:07:00.410Z,-9.30
2022-12-15T21:09:33.333Z,-9.20
2022-12-15T21:12:08.991Z,-9.20
2022-12-15T21:14:39.247Z,-9.20
2022-12-15T21:17:09.270Z,-9.10
2022-12-15T21:19:39.185Z,-9.00
2022-12-15T21:22:12.486Z,-9.20
2022-12-15T21:24:44.985Z,-9.30
2022-12-15T21:27:15.296Z,-9.30
2022-12-15T21:29:52.025Z,-9.40
2022-12-15T21:32:22.746Z,-9.40
2022-12-15T21:34:52.737Z,-9.50
2022-12-15T21:37:27.472Z,-9.50
2022-12-15T21:40:00.863Z,-9.30
2022-12-15T21:42:30.851Z,-9.10
2022-12-15T21:45:00.723Z,-8.90
2022-12-15T21:47:52.652Z,-8.80
2022-12-15T21:50:22.215Z,-8.80
2022-12-15T21:52:52.060Z,-8.80
2022-12-15T21:55:27.351Z,-8.60
2022-12-15T21:57:57.951Z,-8.60
2022-12-15T22:00:28.580Z,-8.50
2022-12-15T22:02:58.675Z,-8.50
2022-12-15T22:05:30.495Z,-8.40
2022-12-15T22:08:01.377Z,-8.50
2022-12-15T22:10:33.870Z,-8.40
2022-12-15T22:13:03.817Z,-8.40
2022-12-15T22:15:33.704Z,-8.30
2022-12-15T22:18:03.705Z,-8.30
2022-12-15T22:20:33.608Z,-8.20
2022-12-15T22:23:03.464Z,-8.20
2022-12-15T22:25:36.033Z,-8.20
2022-12-15T22:28:06.359Z,-8.20
2022-12-15T22:30:36.265Z,-8.30
2022-12-15T22:33:15.051Z,-8.40
2022-12-15T22:35:47.496Z,-8.60
2022-12-15T22:38:17.356Z,-8.90
2022-12-15T22:40:51.826Z,-8.90
2022-12-15T22:43:25.368Z,-9.10
2022-12-15T22:45:56.169Z,-9.20
2022-12-15T22:48:27.226Z,-9.20
2022-12-15T22:50:57.051Z,-9.00
2022-12-15T22:53:28.507Z,-8.90
2022-12-15T22:56:02.024Z,-8.90
2022-12-15T22:58:34.514Z,-8.80
2022-12-15T23:01:04.660Z,-8.90
2022-12-15T23:03:35.149Z,-8.90
2022-12-15T23:06:06.471Z,-8.90
2022-12-15T23:08:36.455Z,-8.80
2022-12-15T23:11:21.393Z,-8.90
2022-12-15T23:13:51.318Z,-8.80
2022-12-15T23:16:22.298Z,-8.80
2022-12-15T23:18:54.985Z,-8.80
2022-12-15T23:21:26.366Z,-8.90
2022-12-15T23:23:56.334Z,-8.90
2022-12-15T23:26:29.059Z,-8.80
2022-12-15T23:28:59.024Z,-8.70
2022-12-15T23:31:29.039Z,-8.70
2022-12-15T23:33:59.109Z,-8.60
2022-12-15T23:36:28.912Z,-8.50
2022-12-15T23:39:00.128Z,-8.40
2022-12-15T23:41:33.165Z,-8.40
2022-12-15T23:44:03.431Z,-8.30
2022-12-15T23:46:34.039Z,-8.20
2022-12-15T23:49:04.020Z,-8.00
2022-12-15T23:51:33.845Z,-8.00
2022-12-15T23:54:03.622Z,-7.90
2022-12-15T23:56:36.151Z,-7.90
2022-12-15T23:59:06.065Z,-7.80
